CheckWX is a tool to help pilots better visualize weather data.  It is not intended as a substitute for an official pre-flight weather briefing.

23:02:17 UTC

CYXS TAF
Prince George Airport
Prince George, Canada
TAF CYXS 191855Z 1919/2007 18005KT 6SM -SHRA BR BKN020 OVC050 TEMPO 1919/1921 P6SM NSW BKN030 OVC050 FM192100 18008KT P6SM SCT030 BKN050 TEMPO 1921/2007 P6SM -SHRA BKN030 OVC050 RMK FCST BASED ON AUTO OBS. NXT FCST BY 200100Z

Jul-19@
19:00 UTC

Jul-19 @ 19:00 UTC

Jul-19@
21:00 UTC

Jul-19 @ 21:00 UTC

TAF CYXS 191855Z 1919/2007 18005KT 6SM -SHRA BR BKN020 OVC050

Expired

Wind
  • 180° at 5 KTS
Conditions
Light Rain, Mist
Cloud Levels
  • Broken at 2,000' AGL
  • Overcast at 5,000' AGL

Jul-19@
19:00 UTC

Jul-19 @ 19:00 UTC

Jul-19@
21:00 UTC

Jul-19 @ 21:00 UTC

TEMPO 1919/1921 P6SM NSW BKN030 OVC050

Expired

Conditions
No significant weather
Cloud Levels
  • Broken at 3,000' AGL
  • Overcast at 5,000' AGL

Jul-19@
21:00 UTC

Jul-19 @ 21:00 UTC

Jul-20@
07:00 UTC

Jul-20 @ 07:00 UTC

FM192100 18008KT P6SM SCT030 BKN050

From

From Standard forecast or significant change

Wind
  • 180° at 8 KTS
Cloud Levels
  • Scattered at 3,000' AGL
  • Broken at 5,000' AGL

Jul-19@
21:00 UTC

Jul-19 @ 21:00 UTC

Jul-20@
07:00 UTC

Jul-20 @ 07:00 UTC

TEMPO 1921/2007 P6SM -SHRA BKN030 OVC050 RMK FCST BASED ON AUTO OBS. NXT FCST BY 200100Z

Temporary

Temporary Changes expected for less than half the time period

Conditions
Light Rain
Cloud Levels
  • Broken at 3,000' AGL
  • Overcast at 5,000' AGL